Time;durP1;ratioP1;P1;durP2;ratioP2;P2;SDS_P1;SDS_P2;PMS_P1;PMS_P2;Temp;Humidity;BMP_temperature;BMP_pressure;BME280_temperature;BME280_humidity;BME280_pressure;Samples;Min_cycle;Max_cycle;Signal;HPM_P1;HPM_P2
2022/11/19 00:02:10;;;;;;;5.57;3.65;;;7.30;77.20;;;;;;5028326;28;20101;-74
2022/11/19 00:04:36;;;;;;;10.27;4.25;;;7.30;77.20;;;;;;5008604;28;20408;-73
2022/11/19 00:07:02;;;;;;;4.97;3.90;;;7.30;77.20;;;;;;5030695;28;20038;-67
2022/11/19 00:09:28;;;;;;;8.90;3.50;;;7.30;77.10;;;;;;5011438;28;20032;-67
2022/11/19 00:14:38;;;;;;;8.10;4.80;;;7.20;77.30;;;;;;5023714;28;20040;-68
2022/11/19 00:17:04;;;;;;;6.05;4.68;;;7.20;77.30;;;;;;5025331;28;20120;-68
2022/11/19 00:19:29;;;;;;;5.38;3.40;;;7.20;77.20;;;;;;5060782;28;20159;-74
2022/11/19 00:21:55;;;;;;;5.95;3.60;;;7.20;77.10;;;;;;5027892;28;20033;-67
2022/11/19 00:24:21;;;;;;;4.47;3.80;;;7.20;77.10;;;;;;5028738;28;20116;-67
2022/11/19 00:26:47;;;;;;;4.22;2.92;;;7.10;77.20;;;;;;5028088;28;20377;-67
2022/11/19 00:29:12;;;;;;;5.70;4.20;;;7.10;77.20;;;;;;5009760;28;20116;-68
2022/11/19 00:31:38;;;;;;;4.90;3.53;;;7.10;77.00;;;;;;5023627;28;20018;-68
2022/11/19 00:34:04;;;;;;;6.45;4.10;;;7.10;77.20;;;;;;5013689;28;20018;-73
2022/11/19 00:36:30;;;;;;;4.45;3.17;;;7.10;77.20;;;;;;5025389;28;20037;-74
2022/11/19 00:38:55;;;;;;;8.68;3.95;;;7.10;77.10;;;;;;5029907;28;20025;-73
2022/11/19 00:41:21;;;;;;;3.83;3.30;;;7.10;77.00;;;;;;5020944;28;20116;-74
2022/11/19 00:43:47;;;;;;;5.15;3.50;;;7.10;77.00;;;;;;5023372;28;20044;-74
2022/11/19 00:46:17;;;;;;;8.00;4.80;;;7.10;76.90;;;;;;5029339;28;20097;-74
2022/11/19 00:48:43;;;;;;;9.18;4.18;;;7.10;76.80;;;;;;5029435;28;20474;-67
2022/11/19 00:51:09;;;;;;;5.57;3.70;;;7.10;76.90;;;;;;5026667;28;20025;-68
2022/11/19 00:53:35;;;;;;;5.22;4.20;;;7.10;76.80;;;;;;5026231;28;20046;-67
2022/11/19 00:56:03;;;;;;;6.70;3.80;;;7.10;76.60;;;;;;5025761;28;20060;-68
2022/11/19 00:58:28;;;;;;;7.18;4.53;;;7.10;76.60;;;;;;5029703;28;20026;-68
2022/11/19 01:00:54;;;;;;;4.43;3.55;;;7.00;76.50;;;;;;5029065;28;20033;-67
2022/11/19 01:03:21;;;;;;;5.80;3.78;;;7.00;77.10;;;;;;5022173;28;20355;-67
2022/11/19 01:05:47;;;;;;;8.13;4.45;;;7.00;76.50;;;;;;5041872;28;20041;-67
2022/11/19 01:08:12;;;;;;;5.07;4.18;;;7.00;76.50;;;;;;5050683;28;20052;-67
2022/11/19 01:10:38;;;;;;;3.95;3.25;;;6.90;76.50;;;;;;5005328;28;20033;-68
2022/11/19 01:15:49;;;;;;;6.15;4.00;;;6.90;76.60;;;;;;5028377;28;20056;-67
2022/11/19 01:18:16;;;;;;;6.10;4.47;;;6.90;76.50;;;;;;5028007;28;20048;-68
2022/11/19 01:20:43;;;;;;;8.82;4.32;;;6.80;76.40;;;;;;5024780;28;20060;-67
2022/11/19 01:23:09;;;;;;;6.93;4.38;;;6.80;76.50;;;;;;5010287;28;20209;-74
2022/11/19 01:25:35;;;;;;;5.35;3.25;;;6.80;76.50;;;;;;5022268;28;20550;-74
2022/11/19 01:28:01;;;;;;;8.02;4.05;;;6.80;76.60;;;;;;5019752;28;20468;-74
2022/11/19 01:30:27;;;;;;;6.75;4.93;;;6.70;76.40;;;;;;5041966;28;20388;-74
2022/11/19 01:32:53;;;;;;;7.75;4.35;;;6.70;76.20;;;;;;5041285;28;20029;-74
2022/11/19 01:35:18;;;;;;;5.18;3.80;;;6.70;76.40;;;;;;5011880;28;20101;-74
2022/11/19 01:37:44;;;;;;;4.30;3.85;;;6.60;76.30;;;;;;5011519;28;20061;-74
2022/11/19 01:40:10;;;;;;;6.82;4.57;;;6.60;76.20;;;;;;5055618;28;20491;-67
2022/11/19 01:42:48;;;;;;;6.78;4.50;;;6.60;76.30;;;;;;5010539;28;20038;-67
2022/11/19 01:45:33;;;;;;;10.40;4.82;;;6.50;76.20;;;;;;5036432;28;20030;-73
2022/11/19 01:48:05;;;;;;;6.25;3.55;;;6.50;76.20;;;;;;5004867;28;20029;-74
2022/11/19 01:50:34;;;;;;;7.25;4.97;;;6.50;76.20;;;;;;5042691;28;20040;-73
2022/11/19 01:53:00;;;;;;;8.32;4.43;;;6.50;76.20;;;;;;5010439;28;20036;-74
2022/11/19 01:55:27;;;;;;;8.32;4.72;;;6.50;76.20;;;;;;5010347;28;20042;-73
2022/11/19 01:58:00;;;;;;;7.32;4.63;;;6.50;76.00;;;;;;5008713;28;20091;-74
2022/11/19 02:00:26;;;;;;;5.65;4.55;;;6.50;75.90;;;;;;5009559;28;20073;-74
2022/11/19 02:02:52;;;;;;;7.22;4.75;;;6.40;75.90;;;;;;5008853;28;20503;-74
2022/11/19 02:05:19;;;;;;;7.90;5.28;;;6.40;76.00;;;;;;5003796;28;20057;-67
2022/11/19 02:07:53;;;;;;;12.80;4.70;;;6.40;75.80;;;;;;5009245;28;20037;-68
2022/11/19 02:10:22;;;;;;;7.43;5.47;;;6.40;75.80;;;;;;5038456;28;20084;-67
2022/11/19 02:13:16;;;;;;;9.02;4.88;;;6.30;75.80;;;;;;5009243;28;20049;-67
2022/11/19 02:15:50;;;;;;;7.22;4.95;;;6.30;75.70;;;;;;5013127;28;20576;-65
2022/11/19 02:18:45;;;;;;;7.88;5.45;;;6.20;75.80;;;;;;5029470;28;20017;-69
2022/11/19 02:21:43;;;;;;;7.25;4.93;;;6.20;75.60;;;;;;5029139;28;20115;-68
2022/11/19 02:24:47;;;;;;;8.02;5.65;;;6.10;75.60;;;;;;5028420;28;20028;-67
2022/11/19 02:27:24;;;;;;;5.95;5.05;;;6.10;75.90;;;;;;5005373;28;20034;-68
2022/11/19 02:30:17;;;;;;;8.68;5.28;;;6.00;75.70;;;;;;5007528;28;20549;-68
2022/11/19 02:33:03;;;;;;;10.98;5.53;;;6.10;75.70;;;;;;5012274;28;20101;-67
2022/11/19 02:35:54;;;;;;;9.43;6.55;;;6.10;75.70;;;;;;5011632;28;20021;-67
2022/11/19 02:38:48;;;;;;;9.25;5.93;;;6.10;75.40;;;;;;5022868;28;20427;-68
2022/11/19 02:41:34;;;;;;;7.75;5.72;;;6.20;75.30;;;;;;5006114;28;20512;-67
2022/11/19 02:44:57;;;;;;;9.77;5.85;;;6.10;75.50;;;;;;5006441;28;20042;-67
2022/11/19 02:47:46;;;;;;;9.52;5.55;;;6.10;75.30;;;;;;5025626;28;20459;-69
2022/11/19 02:50:26;;;;;;;6.22;5.30;;;6.00;75.50;;;;;;5023648;28;20025;-74
2022/11/19 02:52:52;;;;;;;9.32;6.72;;;6.00;75.40;;;;;;5002604;28;20021;-77
2022/11/19 02:55:19;;;;;;;8.82;6.18;;;6.00;75.50;;;;;;5028167;28;20030;-79
2022/11/19 02:58:02;;;;;;;9.07;5.93;;;6.00;75.40;;;;;;5014100;28;20477;-77
2022/11/19 03:06:17;;;;;;;8.88;5.85;;;5.90;75.30;;;;;;5039455;28;20136;-67
2022/11/19 03:08:44;;;;;;;11.55;7.50;;;5.90;75.40;;;;;;5012508;28;20042;-68
2022/11/19 03:11:16;;;;;;;10.00;5.28;;;5.90;75.40;;;;;;5012317;28;20468;-67
2022/11/19 03:17:06;;;;;;;10.18;6.03;;;5.90;75.20;;;;;;5013701;28;20113;-68
2022/11/19 03:19:53;;;;;;;9.25;7.13;;;5.80;75.20;;;;;;5003236;28;20030;-68
2022/11/19 03:22:33;;;;;;;13.75;8.02;;;5.70;75.20;;;;;;5012540;28;20029;-68
2022/11/19 03:25:11;;;;;;;12.68;6.97;;;5.70;75.40;;;;;;5026593;28;20488;-68
2022/11/19 03:27:55;;;;;;;8.48;5.43;;;5.60;75.50;;;;;;5031729;28;20392;-69
2022/11/19 03:30:21;;;;;;;10.65;6.88;;;5.70;75.30;;;;;;5026961;28;20029;-68
2022/11/19 03:32:53;;;;;;;6.30;5.30;;;5.70;75.30;;;;;;5022847;28;20022;-68
2022/11/19 03:35:32;;;;;;;9.77;6.22;;;5.80;75.10;;;;;;5011386;28;20500;-68
2022/11/19 03:38:03;;;;;;;10.52;7.07;;;5.80;74.90;;;;;;5023653;28;20393;-68
2022/11/19 03:40:32;;;;;;;19.35;6.38;;;5.70;74.90;;;;;;5012944;28;20101;-75
2022/11/19 03:42:59;;;;;;;10.60;6.50;;;5.70;75.00;;;;;;5024873;28;20124;-75
2022/11/19 03:45:30;;;;;;;8.55;5.82;;;5.70;75.00;;;;;;5051813;28;20054;-76
2022/11/19 03:47:58;;;;;;;8.85;6.63;;;5.70;75.00;;;;;;5018035;28;20544;-75
2022/11/19 03:50:32;;;;;;;10.60;7.22;;;5.70;75.00;;;;;;5020271;28;20029;-75
2022/11/19 03:52:58;;;;;;;9.13;5.78;;;5.70;75.00;;;;;;5015561;28;20026;-75
2022/11/19 03:55:32;;;;;;;10.45;7.22;;;5.70;74.90;;;;;;5012625;28;20037;-76
2022/11/19 03:58:06;;;;;;;10.68;6.53;;;5.70;74.80;;;;;;5011755;28;20024;-75
2022/11/19 04:00:32;;;;;;;9.40;5.50;;;5.70;74.80;;;;;;5013417;28;20034;-76
2022/11/19 04:02:58;;;;;;;9.63;6.28;;;5.70;74.80;;;;;;5011536;28;20109;-75
2022/11/19 04:05:24;;;;;;;8.60;5.43;;;5.70;74.70;;;;;;5044136;28;20188;-76
2022/11/19 04:07:49;;;;;;;8.48;5.45;;;5.60;74.80;;;;;;5045100;28;20660;-75
2022/11/19 04:10:15;;;;;;;12.75;6.25;;;5.60;74.90;;;;;;5009865;28;20034;-76
2022/11/19 04:12:41;;;;;;;12.43;6.90;;;5.60;74.80;;;;;;5012518;28;20033;-76
2022/11/19 04:15:12;;;;;;;8.55;6.82;;;5.60;74.70;;;;;;5005694;28;20073;-76
2022/11/19 04:17:38;;;;;;;7.88;5.72;;;5.50;74.70;;;;;;5012060;28;20022;-76
2022/11/19 04:20:05;;;;;;;8.82;6.70;;;5.50;74.70;;;;;;5010834;28;20049;-76
2022/11/19 04:22:31;;;;;;;11.15;6.82;;;5.50;74.70;;;;;;5012878;28;20531;-76
2022/11/19 04:24:57;;;;;;;10.02;6.28;;;5.50;75.40;;;;;;5042794;28;20033;-76
2022/11/19 04:27:22;;;;;;;11.80;7.35;;;5.40;74.80;;;;;;5012199;28;20400;-76
2022/11/19 04:29:48;;;;;;;9.68;6.55;;;5.40;74.70;;;;;;5048132;28;20096;-77
2022/11/19 04:32:14;;;;;;;9.07;6.55;;;5.40;74.80;;;;;;5028437;28;20029;-76
2022/11/19 04:34:40;;;;;;;9.43;6.03;;;5.30;74.70;;;;;;5016516;28;20776;-68
2022/11/19 04:37:05;;;;;;;10.57;6.50;;;5.30;74.80;;;;;;5011638;28;20037;-68
2022/11/19 04:39:31;;;;;;;11.20;7.82;;;5.30;74.70;;;;;;5005722;28;20443;-68
2022/11/19 04:41:57;;;;;;;11.57;6.57;;;5.20;74.70;;;;;;5017783;28;20044;-68
2022/11/19 04:44:23;;;;;;;9.98;6.63;;;5.20;74.80;;;;;;5025327;28;20038;-68
2022/11/19 04:46:48;;;;;;;10.07;7.07;;;5.20;74.80;;;;;;5012116;28;20021;-67
2022/11/19 04:49:14;;;;;;;11.52;7.40;;;5.30;74.70;;;;;;5021849;28;20092;-68
2022/11/19 04:51:40;;;;;;;8.88;6.45;;;5.20;74.70;;;;;;5028486;28;20385;-68
2022/11/19 04:54:07;;;;;;;9.52;6.70;;;5.20;74.80;;;;;;5029203;28;20033;-68
2022/11/19 04:56:34;;;;;;;9.73;6.70;;;5.20;74.80;;;;;;5017474;28;20116;-68
2022/11/19 04:59:00;;;;;;;10.98;6.35;;;5.20;74.90;;;;;;5026577;28;20083;-67
2022/11/19 05:01:25;;;;;;;12.82;7.47;;;5.10;74.90;;;;;;5029690;28;20026;-67
2022/11/19 05:03:51;;;;;;;8.77;6.63;;;5.20;75.00;;;;;;5029976;28;20126;-74
2022/11/19 05:06:17;;;;;;;9.10;6.40;;;5.20;74.80;;;;;;5017821;28;20055;-74
2022/11/19 05:08:43;;;;;;;10.38;6.65;;;5.20;74.70;;;;;;5016759;28;20050;-75
2022/11/19 05:11:08;;;;;;;9.52;7.18;;;5.20;74.80;;;;;;5023544;28;20026;-75
2022/11/19 05:13:34;;;;;;;12.48;7.10;;;5.20;74.70;;;;;;5054707;28;20450;-75
2022/11/19 05:16:00;;;;;;;13.90;8.48;;;5.30;74.60;;;;;;5029119;28;20017;-75
2022/11/19 05:18:26;;;;;;;10.18;5.35;;;5.20;74.50;;;;;;5030174;28;20436;-75
2022/11/19 05:20:51;;;;;;;11.52;7.03;;;5.20;74.60;;;;;;5018033;28;20388;-75
2022/11/19 05:23:17;;;;;;;10.23;6.88;;;5.20;74.60;;;;;;5011771;28;20018;-75
2022/11/19 05:25:43;;;;;;;10.88;7.18;;;5.20;74.60;;;;;;5012903;28;20186;-75
2022/11/19 05:28:09;;;;;;;11.38;7.90;;;5.10;74.50;;;;;;5016558;28;20032;-75
2022/11/19 05:30:34;;;;;;;10.35;6.55;;;5.10;74.50;;;;;;5022536;28;20388;-75
2022/11/19 05:33:00;;;;;;;11.32;7.50;;;5.10;74.50;;;;;;5011444;28;20085;-75
2022/11/19 05:35:26;;;;;;;9.02;7.03;;;5.00;74.40;;;;;;5010780;28;20025;-74
2022/11/19 05:37:52;;;;;;;9.55;6.57;;;5.00;74.60;;;;;;5012163;28;20032;-76
2022/11/19 05:40:18;;;;;;;8.43;6.45;;;4.90;74.70;;;;;;5044239;28;20124;-71
2022/11/19 05:42:43;;;;;;;9.32;6.60;;;4.90;74.70;;;;;;5012341;28;20039;-67
2022/11/19 05:45:10;;;;;;;10.43;6.40;;;4.90;74.70;;;;;;5000349;28;20049;-68
2022/11/19 05:47:37;;;;;;;10.43;6.15;;;4.90;74.70;;;;;;5010900;28;20050;-67
2022/11/19 05:50:04;;;;;;;9.60;6.55;;;4.80;74.60;;;;;;5012493;28;20018;-68
2022/11/19 05:52:29;;;;;;;9.57;5.97;;;4.90;74.60;;;;;;5011954;28;20377;-68
2022/11/19 05:54:55;;;;;;;15.38;7.05;;;4.90;74.50;;;;;;5010983;28;20028;-76
2022/11/19 05:57:21;;;;;;;10.85;6.60;;;4.90;74.30;;;;;;5010948;28;20030;-75
2022/11/19 05:59:46;;;;;;;9.30;6.65;;;4.90;74.20;;;;;;5011827;28;20037;-76
2022/11/19 06:02:12;;;;;;;7.95;6.50;;;4.80;74.30;;;;;;5011383;28;20030;-75
2022/11/19 06:04:38;;;;;;;10.27;6.38;;;4.80;74.40;;;;;;5026365;28;20029;-78
2022/11/19 06:07:04;;;;;;;10.25;6.90;;;4.80;74.30;;;;;;5010057;28;20398;-74
2022/11/19 06:09:29;;;;;;;11.70;6.57;;;4.80;74.10;;;;;;5043860;28;20053;-76
2022/11/19 06:11:55;;;;;;;8.02;6.10;;;4.70;74.30;;;;;;5004002;28;20484;-75
2022/11/19 06:14:23;;;;;;;10.60;6.18;;;4.70;74.30;;;;;;5011631;28;20122;-76
2022/11/19 06:16:57;;;;;;;12.27;6.93;;;4.70;74.20;;;;;;5006277;28;20096;-76
2022/11/19 06:19:24;;;;;;;8.05;5.80;;;4.60;74.20;;;;;;4998859;28;20030;-76
2022/11/19 06:21:51;;;;;;;10.63;6.22;;;4.50;74.30;;;;;;5015501;28;20024;-76
2022/11/19 06:24:17;;;;;;;12.98;6.28;;;4.50;74.40;;;;;;5011403;28;20085;-76
2022/11/19 06:26:43;;;;;;;9.25;5.93;;;4.40;74.40;;;;;;5011046;28;20061;-75
2022/11/19 06:29:14;;;;;;;9.52;6.88;;;4.50;74.60;;;;;;5036888;28;20106;-75
2022/11/19 06:31:40;;;;;;;8.27;5.90;;;4.50;74.50;;;;;;5008739;28;20033;-75
2022/11/19 06:34:09;;;;;;;9.93;6.05;;;4.50;74.50;;;;;;5014804;28;20087;-67
2022/11/19 06:36:35;;;;;;;12.32;7.30;;;4.50;74.40;;;;;;5025530;28;20480;-67
2022/11/19 06:39:01;;;;;;;8.75;5.95;;;4.50;74.20;;;;;;5020365;28;20473;-67
2022/11/19 06:41:26;;;;;;;13.68;6.28;;;4.50;74.20;;;;;;5011293;28;20017;-68
2022/11/19 06:43:52;;;;;;;11.48;6.75;;;4.40;74.20;;;;;;5043713;28;20026;-67
2022/11/19 06:46:17;;;;;;;11.30;6.85;;;4.40;74.30;;;;;;5042550;28;20053;-75
2022/11/19 06:48:43;;;;;;;14.10;7.80;;;4.40;74.30;;;;;;5011873;28;20025;-67
2022/11/19 06:51:09;;;;;;;12.13;7.90;;;4.40;74.20;;;;;;5012441;28;20048;-67
2022/11/19 06:53:35;;;;;;;12.50;6.38;;;4.40;74.30;;;;;;5011547;28;20068;-68
2022/11/19 06:56:03;;;;;;;12.45;7.15;;;4.30;74.20;;;;;;5026239;28;20022;-67
2022/11/19 06:58:30;;;;;;;8.85;5.65;;;4.30;74.20;;;;;;5011406;28;20404;-67
2022/11/19 07:00:55;;;;;;;13.88;7.35;;;4.30;74.10;;;;;;5012249;28;20025;-67
2022/11/19 07:03:22;;;;;;;11.18;7.15;;;4.30;74.10;;;;;;5011613;28;20389;-67
2022/11/19 07:05:48;;;;;;;12.93;6.70;;;4.30;74.50;;;;;;5000597;28;20037;-67
2022/11/19 07:08:15;;;;;;;11.27;6.88;;;4.30;74.00;;;;;;5011474;28;20056;-68
2022/11/19 07:10:40;;;;;;;10.32;5.93;;;4.30;73.90;;;;;;5012269;28;20037;-74
2022/11/19 07:13:06;;;;;;;9.75;5.57;;;4.20;73.80;;;;;;5010745;28;20030;-74
2022/11/19 07:15:32;;;;;;;11.68;6.43;;;4.30;73.90;;;;;;5013911;28;20384;-74
2022/11/19 07:17:57;;;;;;;11.38;6.90;;;4.30;73.90;;;;;;5042036;28;20481;-74
2022/11/19 07:20:23;;;;;;;9.63;5.72;;;4.30;73.80;;;;;;5010581;28;20408;-74
2022/11/19 07:22:49;;;;;;;10.80;7.25;;;4.30;73.80;;;;;;5027403;28;20037;-73
2022/11/19 07:25:14;;;;;;;9.43;6.90;;;4.30;73.70;;;;;;5010113;28;20064;-74
2022/11/19 07:27:42;;;;;;;10.55;6.32;;;4.30;73.70;;;;;;5041313;28;20103;-71
2022/11/19 07:30:09;;;;;;;8.80;6.57;;;4.20;73.70;;;;;;5012741;28;20023;-71
2022/11/19 07:32:34;;;;;;;9.73;5.93;;;4.20;73.70;;;;;;5005676;28;20026;-66
2022/11/19 07:35:00;;;;;;;11.35;6.22;;;4.20;73.70;;;;;;4999424;28;20449;-71
2022/11/19 07:37:26;;;;;;;10.75;6.78;;;4.20;73.70;;;;;;5013565;28;20034;-71
2022/11/19 07:39:52;;;;;;;10.13;6.88;;;4.20;73.70;;;;;;5011684;28;20042;-71
2022/11/19 07:45:02;;;;;;;8.15;6.18;;;4.30;73.40;;;;;;5023213;28;20455;-69
2022/11/19 07:47:28;;;;;;;11.57;6.53;;;4.30;73.50;;;;;;5027968;28;20059;-69
2022/11/19 07:49:54;;;;;;;10.45;6.30;;;4.20;73.20;;;;;;5014443;28;20030;-70
2022/11/19 07:52:20;;;;;;;10.45;6.35;;;4.20;73.20;;;;;;5025441;28;20053;-70
2022/11/19 07:54:46;;;;;;;7.93;5.72;;;4.20;73.10;;;;;;5024378;28;20021;-70
2022/11/19 07:57:12;;;;;;;11.15;6.28;;;4.10;73.00;;;;;;5027745;28;20040;-71
2022/11/19 07:59:37;;;;;;;10.52;6.68;;;4.10;73.00;;;;;;5018833;28;20130;-71
2022/11/19 08:02:03;;;;;;;9.63;6.55;;;4.00;72.70;;;;;;5024946;28;20035;-68
2022/11/19 08:04:28;;;;;;;9.32;6.28;;;4.00;72.80;;;;;;5022387;28;20084;-71
2022/11/19 08:06:54;;;;;;;8.63;5.82;;;3.90;72.80;;;;;;5013289;28;20037;-72
2022/11/19 08:09:20;;;;;;;8.57;5.75;;;3.90;72.80;;;;;;5011012;28;20100;-71
2022/11/19 08:11:45;;;;;;;9.27;5.63;;;3.90;72.90;;;;;;5012770;28;20493;-71
2022/11/19 08:14:12;;;;;;;8.70;5.57;;;3.90;72.80;;;;;;5010760;28;20923;-71
2022/11/19 08:19:22;;;;;;;6.30;4.90;;;3.80;72.60;;;;;;5027983;28;20048;-70
2022/11/19 08:21:48;;;;;;;6.72;5.63;;;3.80;72.70;;;;;;5012315;28;20042;-72
2022/11/19 08:24:16;;;;;;;9.57;5.80;;;3.80;73.20;;;;;;5046076;28;20069;-70
2022/11/19 08:26:43;;;;;;;8.05;5.93;;;3.80;72.50;;;;;;5015183;28;20061;-70
2022/11/19 08:29:10;;;;;;;12.57;5.88;;;3.80;72.50;;;;;;5009359;28;20029;-71
2022/11/19 08:31:36;;;;;;;10.00;6.55;;;3.80;72.50;;;;;;5028097;28;20037;-71
2022/11/19 08:34:02;;;;;;;11.60;6.82;;;3.80;72.50;;;;;;5021314;28;20477;-71
2022/11/19 08:36:28;;;;;;;7.25;4.95;;;3.80;72.40;;;;;;5024410;28;20030;-73
2022/11/19 08:38:59;;;;;;;9.23;5.75;;;3.80;72.40;;;;;;5024433;28;20032;-74
2022/11/19 08:44:10;;;;;;;9.80;5.60;;;3.90;72.00;;;;;;5012881;28;20630;-66
2022/11/19 08:46:36;;;;;;;6.80;4.88;;;3.90;71.80;;;;;;5014939;28;20491;-68
2022/11/19 08:49:02;;;;;;;15.45;5.88;;;3.90;71.80;;;;;;5007792;28;20432;-72
2022/11/19 08:51:28;;;;;;;7.68;4.50;;;3.90;71.70;;;;;;5013790;28;20026;-71
2022/11/19 08:53:53;;;;;;;9.43;6.63;;;4.00;71.60;;;;;;5012113;28;20040;-66
2022/11/19 08:56:20;;;;;;;8.52;5.18;;;4.00;71.50;;;;;;5046820;28;20108;-70
2022/11/19 08:58:46;;;;;;;9.32;5.78;;;4.00;71.30;;;;;;5008674;28;20022;-71
2022/11/19 09:01:14;;;;;;;11.27;6.78;;;4.00;71.30;;;;;;5013103;28;20041;-73
2022/11/19 09:03:40;;;;;;;6.50;4.80;;;3.90;71.10;;;;;;5022550;28;20080;-71
2022/11/19 09:06:06;;;;;;;6.30;4.15;;;3.90;71.30;;;;;;5028881;28;20445;-73
2022/11/19 09:08:32;;;;;;;5.35;4.45;;;3.90;71.40;;;;;;5012715;28;20031;-72
2022/11/19 09:10:57;;;;;;;8.02;4.78;;;3.90;71.20;;;;;;5018703;28;20026;-71
2022/11/19 09:13:23;;;;;;;6.53;4.75;;;4.00;71.20;;;;;;5010711;28;20065;-71
2022/11/19 09:15:50;;;;;;;6.78;5.22;;;4.10;71.00;;;;;;5021037;28;20046;-71
2022/11/19 09:18:17;;;;;;;8.32;4.80;;;4.10;70.80;;;;;;5016893;28;20030;-72
2022/11/19 09:20:43;;;;;;;6.22;4.45;;;4.20;70.60;;;;;;5010762;28;20028;-73
2022/11/19 09:23:08;;;;;;;7.28;4.70;;;4.20;70.50;;;;;;5011347;28;20104;-70
2022/11/19 09:25:34;;;;;;;5.88;3.90;;;4.20;70.40;;;;;;5017319;28;20431;-72
2022/11/19 09:28:00;;;;;;;6.03;4.18;;;4.30;70.40;;;;;;5027283;28;20137;-73
2022/11/19 09:30:26;;;;;;;7.78;4.93;;;4.50;70.20;;;;;;5011291;28;20370;-75
2022/11/19 09:32:52;;;;;;;6.78;4.63;;;4.50;69.90;;;;;;4993174;28;20019;-75
2022/11/19 09:35:18;;;;;;;6.50;4.53;;;4.60;69.60;;;;;;5005718;28;20200;-79
2022/11/19 09:37:44;;;;;;;7.07;4.38;;;4.70;69.50;;;;;;5018811;28;20416;-74
2022/11/19 09:40:16;;;;;;;6.50;4.55;;;4.80;69.20;;;;;;5022356;28;20042;-68
2022/11/19 09:42:51;;;;;;;6.05;3.78;;;4.90;69.00;;;;;;5015652;28;20048;-69
2022/11/19 09:45:34;;;;;;;5.55;3.53;;;5.00;68.80;;;;;;5013939;28;20396;-68
2022/11/19 09:48:23;;;;;;;5.32;4.20;;;5.10;68.60;;;;;;5012567;28;20072;-69
2022/11/19 09:51:12;;;;;;;7.82;5.07;;;5.20;68.30;;;;;;5009394;28;20427;-74
2022/11/19 09:54:01;;;;;;;9.02;4.82;;;5.30;68.00;;;;;;5020061;28;20025;-74
2022/11/19 09:56:37;;;;;;;8.82;4.15;;;5.40;67.70;;;;;;5010469;28;20025;-74
2022/11/19 09:59:26;;;;;;;6.78;3.53;;;5.40;67.00;;;;;;5016703;28;20416;-74
2022/11/19 10:01:52;;;;;;;6.30;4.07;;;5.60;66.90;;;;;;5013908;28;20572;-73
2022/11/19 10:04:25;;;;;;;6.78;4.72;;;5.60;66.70;;;;;;5026087;28;20029;-74
2022/11/19 10:07:05;;;;;;;3.90;3.50;;;5.70;66.20;;;;;;5028527;28;20036;-74
2022/11/19 10:09:52;;;;;;;4.38;3.55;;;5.80;66.00;;;;;;5009494;28;20128;-74
2022/11/19 10:12:55;;;;;;;6.95;4.28;;;5.90;65.90;;;;;;5008027;28;20050;-74
2022/11/19 10:15:34;;;;;;;6.95;4.22;;;6.10;65.80;;;;;;5009764;28;20022;-73
2022/11/19 10:18:37;;;;;;;6.38;3.72;;;6.30;66.40;;;;;;5023193;28;20337;-73
2022/11/19 10:21:30;;;;;;;5.75;4.05;;;6.70;65.90;;;;;;5017061;28;20060;-68
2022/11/19 10:24:18;;;;;;;6.10;4.47;;;7.80;63.30;;;;;;5039789;28;20388;-69
2022/11/19 10:26:58;;;;;;;6.43;4.22;;;9.30;59.20;;;;;;5020530;28;20034;-69
2022/11/19 10:29:27;;;;;;;9.68;4.45;;;11.40;53.90;;;;;;5013680;28;20034;-68
2022/11/19 10:32:20;;;;;;;6.88;4.00;;;13.40;49.80;;;;;;5008888;28;20044;-69
2022/11/19 10:34:47;;;;;;;5.63;3.65;;;14.90;45.80;;;;;;5008632;28;20029;-70
2022/11/19 10:37:19;;;;;;;6.65;3.88;;;16.20;44.50;;;;;;5022329;28;20040;-69
2022/11/19 10:40:07;;;;;;;4.87;3.20;;;17.30;42.70;;;;;;5014817;28;20022;-74
2022/11/19 10:42:37;;;;;;;9.40;3.67;;;18.20;41.00;;;;;;5021478;28;20026;-74
2022/11/19 10:45:22;;;;;;;5.05;3.03;;;18.60;39.50;;;;;;5005494;28;20404;-68
2022/11/19 10:48:19;;;;;;;4.05;3.15;;;17.70;39.60;;;;;;5012317;28;20480;-69
2022/11/19 10:50:44;;;;;;;4.18;2.92;;;17.00;41.30;;;;;;5021497;28;20480;-68
2022/11/19 10:53:23;;;;;;;4.50;3.05;;;17.90;40.60;;;;;;4998059;28;20026;-68
2022/11/19 10:56:00;;;;;;;5.10;2.80;;;18.80;38.90;;;;;;5033104;28;20033;-69
2022/11/19 10:58:33;;;;;;;5.90;2.75;;;19.80;36.60;;;;;;5006690;28;20064;-69
2022/11/19 11:01:02;;;;;;;5.25;2.80;;;20.40;35.80;;;;;;5016253;28;20041;-68
2022/11/19 11:03:53;;;;;;;3.65;2.42;;;20.90;34.90;;;;;;5014018;28;20038;-67
2022/11/19 11:06:19;;;;;;;3.35;2.33;;;21.40;33.70;;;;;;5011603;28;20092;-68
2022/11/19 11:08:51;;;;;;;4.47;2.63;;;21.60;33.40;;;;;;5018872;28;20079;-68
2022/11/19 11:17:30;;;;;;;3.42;2.33;;;22.50;31.90;;;;;;5009766;28;20408;-69
2022/11/19 11:20:04;;;;;;;4.13;2.67;;;23.00;31.20;;;;;;5020862;28;20030;-67
2022/11/19 11:22:31;;;;;;;4.15;2.38;;;23.30;30.90;;;;;;5016952;28;20052;-66
2022/11/19 11:24:59;;;;;;;2.85;1.77;;;23.60;30.80;;;;;;5022831;28;20358;-66
2022/11/19 11:27:30;;;;;;;2.58;2.22;;;23.90;30.20;;;;;;5023372;28;20062;-71
2022/11/19 11:30:11;;;;;;;4.32;2.72;;;23.80;29.70;;;;;;5017114;28;20391;-72
2022/11/19 11:32:37;;;;;;;2.78;1.45;;;23.70;29.70;;;;;;5016791;28;20079;-71
2022/11/19 11:35:04;;;;;;;2.65;1.90;;;23.80;29.30;;;;;;5005787;28;20515;-73
2022/11/19 11:37:30;;;;;;;2.83;1.77;;;23.70;29.20;;;;;;5017823;28;20109;-72
2022/11/19 11:39:57;;;;;;;2.78;1.67;;;23.80;29.10;;;;;;5015337;28;20113;-67
2022/11/19 11:42:25;;;;;;;6.95;2.00;;;23.90;29.20;;;;;;5052472;28;20029;-67
2022/11/19 11:44:54;;;;;;;4.10;2.08;;;24.20;29.00;;;;;;5008303;28;20018;-68
2022/11/19 11:47:42;;;;;;;2.97;2.03;;;24.40;28.10;;;;;;5018669;28;20500;-67
2022/11/19 11:50:20;;;;;;;3.08;2.17;;;24.20;28.40;;;;;;5013041;28;20056;-66
2022/11/19 11:52:48;;;;;;;4.05;2.72;;;24.40;28.00;;;;;;5015362;28;20017;-67
2022/11/19 11:55:23;;;;;;;2.95;1.95;;;24.70;28.10;;;;;;5023367;28;20038;-67
2022/11/19 11:58:00;;;;;;;2.72;1.88;;;25.10;27.80;;;;;;5010948;28;20033;-67
2022/11/19 12:00:36;;;;;;;3.10;1.60;;;25.30;27.40;;;;;;5016946;28;20022;-66
2022/11/19 12:03:06;;;;;;;3.33;1.80;;;25.40;27.20;;;;;;5015493;28;20022;-67
2022/11/19 12:06:01;;;;;;;4.75;1.95;;;25.50;27.00;;;;;;5016599;28;20022;-67
2022/11/19 12:08:41;;;;;;;2.60;1.45;;;25.40;26.70;;;;;;5018636;28;20124;-68
2022/11/19 12:11:16;;;;;;;3.05;2.67;;;25.50;27.30;;;;;;5013777;28;20022;-68
2022/11/19 12:13:50;;;;;;;2.83;1.50;;;25.60;26.90;;;;;;5050588;28;20564;-67
2022/11/19 12:16:39;;;;;;;3.08;1.65;;;25.80;26.50;;;;;;5008393;28;20057;-67
2022/11/19 12:19:22;;;;;;;1.85;1.70;;;25.60;26.20;;;;;;5016184;28;20022;-67
2022/11/19 12:21:48;;;;;;;2.08;1.58;;;24.80;26.50;;;;;;5010559;28;20152;-67
2022/11/19 12:24:34;;;;;;;3.58;1.42;;;24.00;27.00;;;;;;5018430;28;20125;-66
2022/11/19 12:27:24;;;;;;;2.75;1.98;;;22.90;27.50;;;;;;5011707;28;20072;-68
2022/11/19 12:30:19;;;;;;;2.33;2.13;;;21.50;28.40;;;;;;5013945;28;20025;-67
2022/11/19 12:33:15;;;;;;;3.03;1.77;;;20.70;29.10;;;;;;5022562;28;20109;-67
2022/11/19 12:35:51;;;;;;;2.45;1.70;;;20.00;29.30;;;;;;5060138;28;20017;-68
2022/11/19 12:38:17;;;;;;;1.90;1.52;;;19.30;30.00;;;;;;5030107;28;20041;-67
2022/11/19 12:41:04;;;;;;;3.28;1.52;;;18.70;30.70;;;;;;5028431;28;20495;-67
2022/11/19 12:43:52;;;;;;;2.72;1.50;;;17.90;31.40;;;;;;5028909;28;20369;-68
2022/11/19 12:46:19;;;;;;;2.58;1.90;;;17.00;32.20;;;;;;5026538;28;20099;-67
2022/11/19 12:48:45;;;;;;;2.85;1.63;;;16.20;33.10;;;;;;5031073;28;20480;-68
2022/11/19 12:51:51;;;;;;;2.08;1.88;;;15.50;34.10;;;;;;5026910;28;20030;-68
2022/11/19 12:54:28;;;;;;;3.72;2.33;;;15.30;34.80;;;;;;5017285;28;20039;-67
2022/11/19 12:57:13;;;;;;;2.92;1.92;;;15.30;34.80;;;;;;5005434;28;20151;-67
2022/11/19 13:00:03;;;;;;;2.00;1.63;;;15.20;34.50;;;;;;5028198;28;20487;-67
2022/11/19 13:02:34;;;;;;;3.42;1.50;;;15.10;34.80;;;;;;5024439;28;20026;-67
2022/11/19 13:05:19;;;;;;;2.60;1.90;;;15.10;35.00;;;;;;5010937;28;20030;-68
2022/11/19 13:07:55;;;;;;;3.30;1.88;;;15.20;34.80;;;;;;5012324;28;20030;-67
2022/11/19 13:10:25;;;;;;;2.03;1.30;;;14.70;35.20;;;;;;5017409;28;20069;-72
2022/11/19 13:12:54;;;;;;;1.73;1.45;;;14.30;36.10;;;;;;5015903;28;20546;-72
2022/11/19 13:15:36;;;;;;;3.35;2.33;;;14.50;36.00;;;;;;5012821;28;20053;-72
2022/11/19 13:18:08;;;;;;;1.38;1.20;;;14.40;35.40;;;;;;5016972;28;20033;-67
2022/11/19 13:20:59;;;;;;;3.15;1.65;;;14.50;36.00;;;;;;5011846;28;20026;-67
2022/11/19 13:23:32;;;;;;;3.97;1.65;;;15.60;35.40;;;;;;5011582;28;20030;-71
2022/11/19 13:26:03;;;;;;;2.25;1.67;;;17.40;33.70;;;;;;5019299;28;20091;-72
2022/11/19 13:28:41;;;;;;;2.13;1.52;;;18.80;31.60;;;;;;5015474;28;20034;-72
2022/11/19 13:31:26;;;;;;;3.08;1.60;;;19.30;30.40;;;;;;5017673;28;20028;-67
2022/11/19 13:33:59;;;;;;;2.60;1.58;;;18.70;30.50;;;;;;5019762;28;20499;-67
2022/11/19 13:36:36;;;;;;;2.25;1.30;;;18.10;31.20;;;;;;5022925;28;20029;-68
2022/11/19 13:39:21;;;;;;;1.30;1.10;;;18.10;31.30;;;;;;5022198;28;20049;-71
2022/11/19 13:44:37;;;;;;;2.40;1.38;;;17.60;31.20;;;;;;5017008;28;20037;-67
2022/11/19 13:47:29;;;;;;;5.25;1.35;;;16.90;31.90;;;;;;5057054;28;20397;-68